createdAt,value
2023-11-21T00:01:57.825Z,12.82
2023-11-21T00:04:51.647Z,13.98
2023-11-21T00:07:39.200Z,12.00
2023-11-21T00:10:33.615Z,13.10
2023-11-21T00:13:20.856Z,12.05
2023-11-21T00:15:54.609Z,13.25
2023-11-21T00:18:22.410Z,12.70
2023-11-21T00:20:49.577Z,13.27
2023-11-21T00:23:23.463Z,12.77
2023-11-21T00:25:50.718Z,13.27
2023-11-21T00:28:44.607Z,12.38
2023-11-21T00:31:31.987Z,12.70
2023-11-21T00:34:25.573Z,12.88
2023-11-21T00:37:12.768Z,13.32
2023-11-21T00:40:06.667Z,13.60
2023-11-21T00:42:53.940Z,13.05
2023-11-21T00:45:47.483Z,12.15
2023-11-21T00:48:41.401Z,12.00
2023-11-21T00:51:41.550Z,12.27
2023-11-21T00:54:28.764Z,11.95
2023-11-21T00:57:22.634Z,13.57
2023-11-21T01:00:09.806Z,12.80
2023-11-21T01:03:03.689Z,13.73
2023-11-21T01:05:50.953Z,13.38
2023-11-21T01:08:44.514Z,13.90
2023-11-21T01:11:31.897Z,12.57
2023-11-21T01:14:25.513Z,13.27
2023-11-21T01:17:12.917Z,12.70
2023-11-21T01:20:06.690Z,12.70
2023-11-21T01:22:53.923Z,13.52
2023-11-21T01:25:53.493Z,14.07
2023-11-21T01:28:47.493Z,13.25
2023-11-21T01:31:34.838Z,12.63
2023-11-21T01:34:28.605Z,12.20
2023-11-21T01:37:15.933Z,13.85
2023-11-21T01:40:09.406Z,13.82
2023-11-21T01:43:03.557Z,12.45
2023-11-21T01:45:50.909Z,13.60
2023-11-21T01:48:44.573Z,12.00
2023-11-21T01:51:38.453Z,13.02
2023-11-21T01:54:32.537Z,11.40
2023-11-21T01:57:23.491Z,12.90
2023-11-21T02:00:17.618Z,13.02
2023-11-21T02:03:11.440Z,13.15
2023-11-21T02:06:05.607Z,12.77
2023-11-21T02:08:52.946Z,12.73
2023-11-21T02:11:46.596Z,12.88
2023-11-21T02:14:33.849Z,12.75
2023-11-21T02:17:27.469Z,12.10
2023-11-21T02:20:21.423Z,12.43
2023-11-21T02:23:27.522Z,11.23
2023-11-21T02:26:14.709Z,11.43
2023-11-21T02:29:15.637Z,11.90
2023-11-21T02:32:02.844Z,11.60
2023-11-21T02:34:56.565Z,11.57
2023-11-21T02:37:50.474Z,10.35
2023-11-21T02:40:47.529Z,9.43
2023-11-21T02:43:41.423Z,10.63
2023-11-21T02:46:36.602Z,11.32
2023-11-21T02:49:37.623Z,10.77
2023-11-21T02:52:38.710Z,10.52
2023-11-21T02:55:32.427Z,10.20
2023-11-21T02:58:19.668Z,10.25
2023-11-21T03:01:13.648Z,10.55
2023-11-21T03:04:01.139Z,9.95
2023-11-21T03:06:55.439Z,11.05
2023-11-21T03:09:49.605Z,10.43
2023-11-21T03:12:43.408Z,10.77
2023-11-21T03:15:37.726Z,9.48
2023-11-21T03:18:25.234Z,10.43
2023-11-21T03:21:20.681Z,10.55
2023-11-21T03:24:07.969Z,11.20
2023-11-21T03:27:01.628Z,11.05
2023-11-21T03:29:48.809Z,10.57
2023-11-21T03:32:42.549Z,10.05
2023-11-21T03:35:29.729Z,11.20
2023-11-21T03:38:23.536Z,11.40
2023-11-21T03:41:10.695Z,11.13
2023-11-21T03:44:05.701Z,11.50
2023-11-21T03:46:53.053Z,11.60
2023-11-21T03:49:52.953Z,11.85
2023-11-21T03:52:46.540Z,13.43
2023-11-21T03:55:40.780Z,13.80
2023-11-21T03:58:28.090Z,13.70
2023-11-21T04:01:21.571Z,11.93
2023-11-21T04:04:08.902Z,12.52
2023-11-21T04:07:02.652Z,13.88
2023-11-21T04:09:49.852Z,13.23
2023-11-21T04:12:43.631Z,13.75
2023-11-21T04:15:31.249Z,14.57
2023-11-21T04:18:24.675Z,15.05
2023-11-21T04:21:11.873Z,14.38
2023-11-21T04:24:05.593Z,14.00
2023-11-21T04:26:52.899Z,14.50
2023-11-21T04:29:46.505Z,14.18
2023-11-21T04:32:40.744Z,15.98
2023-11-21T04:35:28.194Z,13.48
2023-11-21T04:38:21.424Z,13.75
2023-11-21T04:41:08.710Z,13.55
2023-11-21T04:44:02.696Z,13.80
2023-11-21T04:46:50.295Z,13.45
2023-11-21T04:49:50.578Z,14.18
2023-11-21T04:52:51.546Z,14.40
2023-11-21T04:55:45.442Z,13.32
2023-11-21T04:58:39.625Z,13.68
2023-11-21T05:01:26.950Z,12.80
2023-11-21T05:04:20.843Z,13.32
2023-11-21T05:07:08.197Z,13.88
2023-11-21T05:10:01.633Z,14.45
2023-11-21T05:12:48.923Z,14.13
2023-11-21T05:15:43.600Z,12.55
2023-11-21T05:18:30.813Z,13.55
2023-11-21T05:21:24.634Z,12.80
2023-11-21T05:24:11.847Z,13.00
2023-11-21T05:27:05.543Z,13.77
2023-11-21T05:29:52.860Z,12.52
2023-11-21T05:32:46.569Z,12.02
2023-11-21T05:35:33.833Z,11.68
2023-11-21T05:38:27.521Z,11.48
2023-11-21T05:41:14.765Z,11.73
2023-11-21T05:44:08.576Z,12.40
2023-11-21T05:46:55.849Z,10.45
2023-11-21T05:49:49.708Z,11.13
2023-11-21T05:52:36.916Z,11.38
2023-11-21T05:55:30.615Z,11.70
2023-11-21T05:58:17.884Z,12.15
2023-11-21T06:01:11.651Z,10.65
2023-11-21T06:03:59.101Z,11.85
2023-11-21T06:06:53.606Z,10.77
2023-11-21T06:09:40.706Z,10.45
2023-11-21T06:12:34.739Z,10.90
2023-11-21T06:15:21.928Z,9.80
2023-11-21T06:18:18.708Z,11.18
2023-11-21T06:21:05.798Z,10.63
2023-11-21T06:23:59.606Z,10.18
2023-11-21T06:26:46.725Z,10.40
2023-11-21T06:29:40.824Z,10.13
2023-11-21T06:32:28.016Z,9.07
2023-11-21T06:35:22.024Z,10.27
2023-11-21T06:38:09.359Z,9.88
2023-11-21T06:41:03.713Z,10.20
2023-11-21T06:43:50.941Z,9.35
2023-11-21T06:46:44.800Z,9.70
2023-11-21T06:49:51.520Z,9.30
2023-11-21T06:52:45.845Z,8.90
2023-11-21T16:53:25.666Z,5.30
2023-11-21T16:56:19.790Z,4.63
2023-11-21T16:59:13.843Z,5.32
2023-11-21T17:02:01.127Z,4.80
2023-11-21T17:04:54.812Z,5.10
2023-11-21T17:07:42.115Z,5.45
2023-11-21T17:10:36.702Z,6.03
2023-11-21T17:13:23.886Z,4.93
2023-11-21T17:16:17.825Z,4.95
2023-11-21T17:19:05.120Z,4.95
2023-11-21T17:21:58.746Z,4.88
2023-11-21T17:24:52.613Z,5.15
2023-11-21T17:27:39.892Z,5.40
2023-11-21T17:30:33.675Z,5.00
2023-11-21T17:33:20.878Z,5.75
2023-11-21T17:36:14.611Z,5.60
2023-11-21T17:39:01.850Z,5.20
2023-11-21T17:41:55.613Z,5.18
2023-11-21T17:44:42.863Z,5.35
2023-11-21T17:47:36.872Z,5.00
2023-11-21T17:50:24.418Z,5.50
2023-11-21T17:53:18.811Z,4.97
2023-11-21T17:56:13.605Z,5.97
2023-11-21T17:59:07.649Z,5.85
2023-11-21T18:01:58.812Z,5.95
2023-11-21T18:04:52.660Z,6.25
2023-11-21T18:07:39.829Z,7.53
2023-11-21T18:10:33.584Z,6.32
2023-11-21T18:13:27.755Z,6.60
2023-11-21T18:16:21.628Z,7.72
2023-11-21T18:19:15.832Z,8.05
2023-11-21T18:22:03.502Z,7.53
2023-11-21T18:24:58.282Z,7.60
2023-11-21T18:27:45.743Z,8.02
2023-11-21T18:30:40.059Z,8.40
2023-11-21T18:33:27.393Z,8.50
2023-11-21T18:36:20.783Z,7.15
2023-11-21T18:39:14.627Z,7.93
2023-11-21T18:42:02.361Z,7.93
2023-11-21T18:44:59.293Z,7.53
2023-11-21T18:47:47.599Z,7.75
2023-11-21T18:50:41.644Z,7.95
2023-11-21T18:53:28.898Z,8.77
2023-11-21T18:56:29.670Z,8.45
2023-11-21T18:59:23.777Z,9.27
2023-11-21T19:02:10.996Z,8.32
2023-11-21T19:05:05.873Z,9.02
2023-11-21T19:07:55.941Z,8.50
2023-11-21T19:10:49.713Z,8.13
2023-11-21T19:13:43.633Z,8.05
2023-11-21T19:16:31.026Z,8.20
2023-11-21T19:19:24.810Z,8.35
2023-11-21T19:22:12.088Z,8.50
2023-11-21T19:25:05.695Z,9.18
2023-11-21T19:27:53.170Z,9.05
2023-11-21T19:30:46.700Z,8.10
2023-11-21T19:33:33.943Z,9.20
2023-11-21T19:36:27.634Z,10.65
2023-11-21T19:39:14.794Z,9.70
2023-11-21T19:42:08.632Z,9.65
2023-11-21T19:44:55.967Z,9.40
2023-11-21T19:47:49.616Z,8.77
2023-11-21T19:50:36.875Z,8.85
2023-11-21T19:53:30.607Z,8.70
2023-11-21T19:56:24.812Z,8.90
2023-11-21T19:59:20.386Z,8.43
2023-11-21T20:02:08.488Z,8.43
2023-11-21T20:05:02.670Z,9.20
2023-11-21T20:07:56.741Z,9.98
2023-11-21T20:10:43.974Z,8.43
2023-11-21T20:13:37.846Z,9.63
2023-11-21T20:16:25.284Z,9.10
2023-11-21T20:19:18.750Z,8.98
2023-11-21T20:22:05.935Z,9.82
2023-11-21T20:24:59.836Z,9.20
2023-11-21T20:27:47.081Z,9.10
2023-11-21T20:30:44.275Z,9.02
2023-11-21T20:33:37.705Z,9.00
2023-11-21T20:36:25.212Z,9.20
2023-11-21T20:39:18.639Z,9.68
2023-11-21T20:42:12.825Z,9.50
2023-11-21T20:45:06.638Z,9.23
2023-11-21T20:47:53.983Z,9.63
2023-11-21T20:50:47.612Z,10.15
2023-11-21T20:53:34.860Z,10.05
2023-11-21T20:56:35.639Z,10.18
2023-11-21T20:59:23.292Z,8.77
2023-11-21T21:02:18.688Z,9.23
2023-11-21T21:05:06.148Z,9.40
2023-11-21T21:07:59.661Z,9.10
2023-11-21T21:10:53.774Z,8.90
2023-11-21T21:13:41.367Z,9.10
2023-11-21T21:16:34.914Z,9.35
2023-11-21T21:19:22.564Z,8.68
2023-11-21T21:22:16.763Z,8.77
2023-11-21T21:25:03.931Z,8.85
2023-11-21T21:27:57.815Z,8.32
2023-11-21T21:30:44.988Z,8.65
2023-11-21T21:33:39.151Z,9.07
2023-11-21T21:36:26.487Z,8.40
2023-11-21T21:39:19.771Z,7.63
2023-11-21T21:42:07.312Z,8.55
2023-11-21T21:45:00.732Z,8.63
2023-11-21T21:47:54.699Z,8.18
2023-11-21T21:50:48.962Z,7.60
2023-11-21T21:53:36.311Z,7.28
2023-11-21T21:56:36.812Z,8.27
2023-11-21T21:59:23.978Z,8.13
2023-11-21T22:02:17.824Z,8.10
2023-11-21T22:05:05.142Z,8.15
2023-11-21T22:07:58.830Z,8.65
2023-11-21T22:10:46.031Z,8.60
2023-11-21T22:13:39.919Z,7.70
2023-11-21T22:16:27.163Z,8.65
2023-11-21T22:19:20.899Z,7.57
2023-11-21T22:22:08.089Z,8.20
2023-11-21T22:25:01.799Z,7.50
2023-11-21T22:27:49.053Z,7.32
2023-11-21T22:30:42.973Z,7.03
2023-11-21T22:33:30.274Z,7.93
2023-11-21T22:36:24.126Z,7.75
2023-11-21T22:39:11.360Z,7.05
2023-11-21T22:42:04.842Z,7.55
2023-11-21T22:44:58.653Z,7.10
2023-11-21T22:47:52.698Z,8.13
2023-11-21T22:50:46.667Z,6.82
2023-11-21T22:53:33.894Z,7.13
2023-11-21T22:56:34.880Z,7.57
2023-11-21T22:59:22.078Z,7.00
2023-11-21T23:02:18.778Z,6.72
2023-11-21T23:05:06.066Z,7.45
2023-11-21T23:07:59.732Z,7.65
2023-11-21T23:10:46.916Z,6.97
2023-11-21T23:13:40.682Z,7.30
2023-11-21T23:16:28.510Z,7.20
2023-11-21T23:19:22.686Z,6.40
2023-11-21T23:22:09.918Z,6.03
2023-11-21T23:25:03.663Z,6.03
2023-11-21T23:27:51.045Z,6.20
2023-11-21T23:30:44.663Z,6.20
2023-11-21T23:33:32.272Z,6.47
2023-11-21T23:36:25.704Z,6.38
2023-11-21T23:39:13.088Z,6.90
2023-11-21T23:42:06.676Z,5.78
2023-11-21T23:44:53.969Z,5.70
2023-11-21T23:47:47.705Z,5.63
2023-11-21T23:50:41.783Z,4.90
2023-11-21T23:53:35.667Z,5.40
2023-11-21T23:56:29.797Z,5.47
2023-11-21T23:59:16.921Z,5.15
